Time;durP1;ratioP1;P1;durP2;ratioP2;P2;SDS_P1;SDS_P2;PMS_P1;PMS_P2;Temp;Humidity;BMP_temperature;BMP_pressure;BME280_temperature;BME280_humidity;BME280_pressure;Samples;Min_cycle;Max_cycle;Signal;HPM_P1;HPM_P2
2023/09/10 00:01:14;;;;;;;1.00;0.35;;;16.80;99.90;;;;;;5048487;28;20041;-68
2023/09/10 00:03:40;;;;;;;0.10;0.10;;;16.80;99.90;;;;;;5032658;28;20072;-68
2023/09/10 00:06:06;;;;;;;0.38;0.38;;;16.80;99.90;;;;;;5068401;28;20028;-68
2023/09/10 00:08:35;;;;;;;0.30;0.30;;;16.80;99.90;;;;;;5049397;28;20158;-68
2023/09/10 00:11:01;;;;;;;0.70;0.47;;;16.80;99.90;;;;;;5050000;28;20047;-68
2023/09/10 00:13:28;;;;;;;0.52;0.52;;;16.80;99.90;;;;;;5058750;28;20471;-68
2023/09/10 00:15:54;;;;;;;0.43;0.43;;;16.70;99.90;;;;;;5053288;28;20044;-68
2023/09/10 00:18:20;;;;;;;0.40;0.30;;;16.70;99.90;;;;;;5051635;28;20073;-68
2023/09/10 00:20:46;;;;;;;0.55;0.45;;;16.70;99.90;;;;;;5038338;28;20103;-68
2023/09/10 00:23:13;;;;;;;0.20;0.20;;;16.70;99.90;;;;;;5067907;28;20956;-68
2023/09/10 00:25:39;;;;;;;1.05;0.90;;;16.60;99.90;;;;;;5044069;28;20040;-68
2023/09/10 00:28:05;;;;;;;0.25;0.25;;;16.60;99.90;;;;;;5034418;28;20476;-68
2023/09/10 00:30:31;;;;;;;0.63;0.40;;;16.50;99.90;;;;;;5051285;28;20040;-68
2023/09/10 00:32:56;;;;;;;0.30;0.30;;;16.50;99.90;;;;;;5050314;28;20071;-68
2023/09/10 00:35:22;;;;;;;0.63;0.30;;;16.50;99.90;;;;;;5046096;28;20043;-68
2023/09/10 00:37:48;;;;;;;0.30;0.30;;;16.50;99.90;;;;;;5045182;28;20037;-68
2023/09/10 00:40:14;;;;;;;0.35;0.35;;;16.50;99.90;;;;;;5051117;28;20048;-68
2023/09/10 00:42:40;;;;;;;0.30;0.30;;;16.60;99.90;;;;;;5045838;28;20107;-68
2023/09/10 00:45:07;;;;;;;0.85;0.55;;;16.60;99.90;;;;;;5035322;28;20067;-68
2023/09/10 00:47:35;;;;;;;0.28;0.28;;;16.70;99.90;;;;;;5042776;28;20040;-68
2023/09/10 00:50:01;;;;;;;0.50;0.40;;;16.70;99.90;;;;;;5058966;28;20386;-69
2023/09/10 00:52:28;;;;;;;0.40;0.17;;;16.70;99.90;;;;;;5048981;28;20032;-68
2023/09/10 00:54:54;;;;;;;0.40;0.38;;;16.80;99.90;;;;;;5064303;28;20036;-68
2023/09/10 00:57:21;;;;;;;0.57;0.30;;;16.80;99.90;;;;;;5048430;28;20043;-68
2023/09/10 00:59:47;;;;;;;1.23;0.57;;;16.80;99.90;;;;;;5038070;28;20051;-68
2023/09/10 01:02:14;;;;;;;0.73;0.73;;;16.80;99.90;;;;;;5038924;28;20033;-68
2023/09/10 01:04:40;;;;;;;0.15;0.15;;;16.80;99.90;;;;;;5057707;28;20033;-68
2023/09/10 01:07:06;;;;;;;0.70;0.70;;;16.80;99.90;;;;;;5048624;28;20426;-68
2023/09/10 01:09:32;;;;;;;0.30;0.30;;;16.80;99.90;;;;;;5038974;28;20123;-69
2023/09/10 01:12:20;;;;;;;1.73;0.55;;;16.80;99.90;;;;;;5033775;28;20124;-69
2023/09/10 01:15:03;;;;;;;0.55;0.55;;;16.80;99.90;;;;;;5037068;28;20538;-68
2023/09/10 01:17:38;;;;;;;0.70;0.57;;;16.80;99.90;;;;;;5059999;28;20094;-68
2023/09/10 01:20:32;;;;;;;1.55;0.70;;;16.80;99.90;;;;;;5043770;28;20032;-69
2023/09/10 01:23:08;;;;;;;0.95;0.50;;;16.80;99.90;;;;;;5065419;28;20407;-69
2023/09/10 01:25:34;;;;;;;2.88;1.42;;;16.90;99.90;;;;;;5036689;28;20040;-68
2023/09/10 01:28:03;;;;;;;1.48;0.85;;;16.80;99.90;;;;;;5036075;28;20127;-68
2023/09/10 01:30:29;;;;;;;1.60;0.95;;;16.90;99.90;;;;;;5078679;28;20128;-68
2023/09/10 01:33:18;;;;;;;0.63;0.63;;;16.90;99.90;;;;;;5085301;28;20127;-68
2023/09/10 01:35:53;;;;;;;1.55;0.70;;;16.90;99.90;;;;;;5034506;28;20451;-68
2023/09/10 01:38:29;;;;;;;0.70;0.70;;;16.90;99.90;;;;;;5040983;28;20491;-68
2023/09/10 01:41:09;;;;;;;1.20;0.73;;;16.90;99.90;;;;;;5032035;28;20045;-68
2023/09/10 01:43:35;;;;;;;0.63;0.50;;;16.90;99.90;;;;;;5034745;28;20037;-68
2023/09/10 01:46:03;;;;;;;4.60;1.08;;;16.90;99.90;;;;;;5035326;28;20032;-69
2023/09/10 01:48:29;;;;;;;0.22;0.22;;;16.90;99.90;;;;;;5041846;28;20051;-68
2023/09/10 01:50:55;;;;;;;1.00;0.75;;;16.80;99.90;;;;;;5069990;28;20045;-68
2023/09/10 01:53:20;;;;;;;0.85;0.22;;;16.70;99.90;;;;;;5035360;28;20041;-68
2023/09/10 01:55:46;;;;;;;0.45;0.45;;;16.60;99.90;;;;;;5052153;28;20048;-68
2023/09/10 01:58:13;;;;;;;0.75;0.43;;;16.50;99.90;;;;;;5036920;28;20036;-68
2023/09/10 02:00:39;;;;;;;0.35;0.35;;;16.50;99.90;;;;;;5033365;28;20078;-68
2023/09/10 02:03:05;;;;;;;1.33;0.57;;;16.40;99.90;;;;;;5035044;28;20052;-68
2023/09/10 02:05:30;;;;;;;0.55;0.55;;;16.30;99.90;;;;;;5041707;28;20024;-69
2023/09/10 02:07:56;;;;;;;0.10;0.10;;;16.20;99.90;;;;;;5037810;28;20044;-69
2023/09/10 02:10:22;;;;;;;0.73;0.63;;;16.20;99.90;;;;;;5071127;28;20033;-69
2023/09/10 02:12:48;;;;;;;0.30;0.30;;;16.10;99.90;;;;;;5037876;28;20131;-68
2023/09/10 02:15:13;;;;;;;0.93;0.90;;;16.10;99.90;;;;;;5038200;28;20480;-69
2023/09/10 02:17:39;;;;;;;1.08;0.32;;;16.00;99.90;;;;;;5035716;28;20139;-68
2023/09/10 02:20:09;;;;;;;1.13;0.75;;;16.00;99.90;;;;;;5036614;28;20032;-69
2023/09/10 02:22:36;;;;;;;1.05;0.35;;;16.00;99.90;;;;;;5040109;28;20040;-68
2023/09/10 02:25:03;;;;;;;0.38;0.38;;;15.90;99.90;;;;;;5031221;28;20724;-69
2023/09/10 02:27:30;;;;;;;0.45;0.45;;;15.90;99.90;;;;;;5039695;28;20047;-68
2023/09/10 02:29:55;;;;;;;1.08;0.60;;;15.80;99.90;;;;;;5043715;28;20166;-68
2023/09/10 02:32:21;;;;;;;0.65;0.65;;;15.80;99.90;;;;;;5065396;28;20045;-68
2023/09/10 02:34:47;;;;;;;1.10;0.50;;;15.80;99.90;;;;;;5039597;28;20071;-68
2023/09/10 02:37:14;;;;;;;0.32;0.32;;;15.80;99.90;;;;;;5037792;28;20124;-68
2023/09/10 02:39:39;;;;;;;0.73;0.73;;;15.70;99.90;;;;;;5038145;28;20044;-68
2023/09/10 02:42:05;;;;;;;0.50;0.40;;;15.70;99.90;;;;;;5035756;28;20090;-68
2023/09/10 02:44:31;;;;;;;0.40;0.40;;;15.60;99.90;;;;;;5040586;28;20124;-68
2023/09/10 02:46:56;;;;;;;1.08;0.60;;;15.60;99.90;;;;;;5035049;28;20040;-69
2023/09/10 02:49:24;;;;;;;0.50;0.50;;;15.60;99.90;;;;;;5034579;28;20562;-68
2023/09/10 02:51:50;;;;;;;0.25;0.25;;;15.60;99.90;;;;;;5035736;28;20059;-68
2023/09/10 02:54:16;;;;;;;0.30;0.30;;;15.60;99.90;;;;;;5039218;28;20037;-68
2023/09/10 02:56:41;;;;;;;1.55;0.50;;;15.70;99.90;;;;;;5045146;28;20085;-69
2023/09/10 02:59:16;;;;;;;1.40;0.50;;;15.70;99.90;;;;;;5040033;28;20049;-68
2023/09/10 03:01:42;;;;;;;0.30;0.30;;;15.60;99.90;;;;;;5046235;28;20425;-68
2023/09/10 03:04:07;;;;;;;0.75;0.73;;;15.70;99.90;;;;;;5044400;28;20037;-68
2023/09/10 03:06:33;;;;;;;0.20;0.20;;;15.70;99.90;;;;;;5044594;28;20036;-68
2023/09/10 03:08:58;;;;;;;1.23;0.50;;;15.70;99.90;;;;;;5047883;28;20097;-68
2023/09/10 03:11:24;;;;;;;1.73;0.82;;;15.70;99.90;;;;;;5026964;28;20127;-68
2023/09/10 03:13:49;;;;;;;1.83;0.68;;;15.60;99.90;;;;;;5078973;28;21452;-68
2023/09/10 03:16:15;;;;;;;0.20;0.20;;;15.60;99.90;;;;;;5045030;28;20043;-68
2023/09/10 03:18:40;;;;;;;0.35;0.35;;;15.60;99.90;;;;;;5040479;28;20033;-68
2023/09/10 03:21:06;;;;;;;1.95;0.50;;;15.50;99.90;;;;;;5041754;28;20089;-68
2023/09/10 03:23:32;;;;;;;0.22;0.10;;;15.50;99.90;;;;;;5054946;28;20041;-68
2023/09/10 03:25:57;;;;;;;0.57;0.57;;;15.50;99.90;;;;;;5046475;28;20204;-68
2023/09/10 03:28:23;;;;;;;0.40;0.30;;;15.40;99.90;;;;;;5043412;28;20461;-68
2023/09/10 03:30:48;;;;;;;0.20;0.20;;;15.40;99.90;;;;;;5046701;28;20068;-68
2023/09/10 03:33:14;;;;;;;1.65;1.55;;;15.30;99.90;;;;;;5044690;28;20123;-68
2023/09/10 03:35:39;;;;;;;0.52;0.52;;;15.20;99.90;;;;;;5049152;28;20391;-68
2023/09/10 03:38:05;;;;;;;2.42;0.57;;;15.20;99.90;;;;;;5043725;28;20052;-68
2023/09/10 03:40:30;;;;;;;0.40;0.40;;;15.20;99.90;;;;;;5044739;28;20327;-69
2023/09/10 03:42:56;;;;;;;0.20;0.20;;;15.30;99.90;;;;;;5043980;28;20040;-68
2023/09/10 03:45:22;;;;;;;0.80;0.47;;;15.30;99.90;;;;;;5040287;28;21740;-69
2023/09/10 03:47:47;;;;;;;0.30;0.30;;;15.30;99.90;;;;;;5044657;28;20521;-69
2023/09/10 03:50:15;;;;;;;0.75;0.75;;;15.30;99.90;;;;;;5037631;28;20045;-69
2023/09/10 03:52:40;;;;;;;0.52;0.30;;;15.30;99.90;;;;;;5041063;28;20075;-69
2023/09/10 03:55:06;;;;;;;0.63;0.63;;;15.30;99.90;;;;;;5037542;28;20799;-69
2023/09/10 03:57:32;;;;;;;0.40;0.35;;;15.30;99.90;;;;;;5035237;28;20044;-69
2023/09/10 03:59:57;;;;;;;0.50;0.50;;;15.30;99.90;;;;;;5041301;28;20036;-69
2023/09/10 04:02:24;;;;;;;1.08;0.43;;;15.30;99.90;;;;;;5039415;28;20123;-68
2023/09/10 04:04:50;;;;;;;1.55;0.98;;;15.20;99.90;;;;;;5040965;28;20044;-69
2023/09/10 04:07:15;;;;;;;0.75;0.55;;;15.20;99.90;;;;;;5043412;28;20388;-69
2023/09/10 04:09:42;;;;;;;0.40;0.30;;;15.30;99.90;;;;;;5046139;28;20678;-69
2023/09/10 04:12:07;;;;;;;1.10;0.60;;;15.20;99.90;;;;;;5038789;28;20481;-69
2023/09/10 04:14:33;;;;;;;0.30;0.30;;;15.30;99.90;;;;;;5037810;28;20135;-69
2023/09/10 04:16:58;;;;;;;1.27;0.35;;;15.30;99.90;;;;;;5040020;28;20923;-69
2023/09/10 04:19:24;;;;;;;1.45;0.35;;;15.30;99.90;;;;;;5039319;28;20047;-69
2023/09/10 04:21:49;;;;;;;1.13;0.60;;;15.40;99.90;;;;;;5041692;28;20049;-69
2023/09/10 04:24:15;;;;;;;0.82;0.60;;;15.30;99.90;;;;;;5040199;28;20039;-69
2023/09/10 04:26:42;;;;;;;0.73;0.50;;;15.30;99.90;;;;;;5038431;28;20094;-69
2023/09/10 04:29:07;;;;;;;1.30;0.75;;;15.20;99.90;;;;;;5035192;28;20052;-69
2023/09/10 04:31:38;;;;;;;0.20;0.20;;;15.10;99.90;;;;;;5033105;28;20391;-69
2023/09/10 04:34:04;;;;;;;0.45;0.45;;;15.00;99.90;;;;;;5073263;28;20044;-69
2023/09/10 04:36:30;;;;;;;0.45;0.45;;;14.90;99.90;;;;;;5076961;28;20094;-69
2023/09/10 04:38:56;;;;;;;0.43;0.43;;;14.90;99.90;;;;;;5045647;28;20044;-69
2023/09/10 04:41:21;;;;;;;0.73;0.30;;;14.90;99.90;;;;;;5059834;28;20130;-69
2023/09/10 04:43:47;;;;;;;0.20;0.20;;;14.80;99.90;;;;;;5038942;28;20040;-69
2023/09/10 04:46:12;;;;;;;0.30;0.30;;;14.90;99.90;;;;;;5036851;28;20083;-69
2023/09/10 04:48:38;;;;;;;0.20;0.20;;;15.00;99.90;;;;;;5037524;28;20111;-69
2023/09/10 04:51:03;;;;;;;0.52;0.30;;;15.00;99.90;;;;;;5039062;28;20039;-69
2023/09/10 04:53:29;;;;;;;0.73;0.60;;;15.00;99.90;;;;;;5035937;28;20655;-69
2023/09/10 04:55:55;;;;;;;0.10;0.10;;;15.10;99.90;;;;;;5069033;28;20087;-69
2023/09/10 04:58:20;;;;;;;0.40;0.40;;;15.10;99.90;;;;;;5038677;28;20052;-69
2023/09/10 05:00:47;;;;;;;1.85;0.77;;;15.10;99.90;;;;;;5041589;28;20132;-69
2023/09/10 05:03:13;;;;;;;0.10;0.10;;;15.20;99.90;;;;;;5037934;28;20052;-69
2023/09/10 05:05:38;;;;;;;0.88;0.57;;;15.20;99.90;;;;;;5039985;28;20040;-69
2023/09/10 05:08:04;;;;;;;0.90;0.40;;;15.20;99.90;;;;;;5053407;28;20045;-69
2023/09/10 05:10:30;;;;;;;0.30;0.30;;;15.20;99.90;;;;;;5040220;28;20079;-69
2023/09/10 05:12:56;;;;;;;1.00;0.60;;;15.20;99.90;;;;;;5039713;28;20429;-69
2023/09/10 05:15:22;;;;;;;1.35;0.77;;;15.20;99.90;;;;;;5038654;28;20098;-69
2023/09/10 05:17:47;;;;;;;1.20;0.77;;;15.20;99.90;;;;;;5064709;28;20041;-69
2023/09/10 05:20:13;;;;;;;0.75;0.75;;;15.20;99.90;;;;;;5035249;28;20525;-69
2023/09/10 05:22:39;;;;;;;2.70;1.13;;;15.20;99.90;;;;;;5036682;28;20062;-69
2023/09/10 05:25:05;;;;;;;2.17;1.45;;;15.20;99.90;;;;;;5069728;28;20040;-69
2023/09/10 05:27:32;;;;;;;1.55;0.93;;;15.20;99.90;;;;;;5034646;28;20041;-69
2023/09/10 05:29:57;;;;;;;0.85;0.57;;;15.20;99.90;;;;;;5035791;28;20071;-69
2023/09/10 05:32:23;;;;;;;6.30;1.27;;;15.20;99.90;;;;;;5061572;28;20048;-69
2023/09/10 05:34:48;;;;;;;1.60;1.50;;;15.30;99.90;;;;;;5042312;28;20040;-69
2023/09/10 05:37:14;;;;;;;0.40;0.40;;;15.30;99.90;;;;;;5048161;28;20411;-69
2023/09/10 05:39:39;;;;;;;0.20;0.20;;;15.40;99.90;;;;;;5041024;28;20468;-69
2023/09/10 05:42:05;;;;;;;0.65;0.65;;;15.50;99.90;;;;;;5039146;28;20036;-69
2023/09/10 05:44:30;;;;;;;0.73;0.38;;;15.60;99.90;;;;;;5039171;28;20459;-69
2023/09/10 05:46:56;;;;;;;0.60;0.20;;;15.70;99.90;;;;;;5036733;28;20029;-69
2023/09/10 05:49:22;;;;;;;0.50;0.50;;;15.70;99.90;;;;;;5035469;28;20098;-69
2023/09/10 05:51:47;;;;;;;0.70;0.43;;;15.60;99.90;;;;;;5039346;28;20044;-69
2023/09/10 05:54:13;;;;;;;1.33;0.50;;;15.70;99.90;;;;;;5039308;28;20079;-69
2023/09/10 05:56:38;;;;;;;0.50;0.50;;;15.80;99.90;;;;;;5038442;28;20635;-69
2023/09/10 05:59:05;;;;;;;1.02;0.88;;;15.80;99.90;;;;;;5036597;28;20060;-69
2023/09/10 06:01:31;;;;;;;0.75;0.55;;;15.90;99.90;;;;;;5033570;28;20564;-69
2023/09/10 06:03:57;;;;;;;1.13;0.43;;;16.00;99.90;;;;;;5034399;28;20033;-69
2023/09/10 06:06:22;;;;;;;13.48;1.13;;;16.00;99.90;;;;;;5073817;28;20811;-69
2023/09/10 06:08:48;;;;;;;3.28;1.30;;;16.10;99.90;;;;;;5036168;28;20072;-69
2023/09/10 06:11:13;;;;;;;3.10;0.82;;;16.20;99.90;;;;;;5049724;28;20879;-69
2023/09/10 06:13:39;;;;;;;1.50;0.98;;;16.20;99.90;;;;;;5053438;28;20567;-69
2023/09/10 06:16:05;;;;;;;1.60;1.40;;;16.20;99.90;;;;;;5040032;28;20052;-69
2023/09/10 06:18:30;;;;;;;1.60;1.13;;;16.20;99.90;;;;;;5042601;28;20122;-69
2023/09/10 06:20:56;;;;;;;5.55;1.75;;;16.20;99.90;;;;;;5046479;28;20039;-69
2023/09/10 06:23:21;;;;;;;0.75;0.75;;;16.20;99.90;;;;;;5058410;28;20040;-69
2023/09/10 06:25:47;;;;;;;1.00;0.93;;;16.30;99.90;;;;;;5037394;28;20040;-70
2023/09/10 06:28:12;;;;;;;0.40;0.40;;;16.30;99.90;;;;;;5032288;28;20523;-69
2023/09/10 06:30:39;;;;;;;0.50;0.50;;;16.40;99.90;;;;;;5038180;28;20545;-68
2023/09/10 06:33:04;;;;;;;0.45;0.43;;;16.50;99.90;;;;;;5040936;28;20045;-69
2023/09/10 06:35:30;;;;;;;0.93;0.70;;;16.60;99.90;;;;;;5050945;28;20036;-69
2023/09/10 06:37:56;;;;;;;0.65;0.65;;;16.70;99.90;;;;;;5039026;28;20052;-69
2023/09/10 06:40:21;;;;;;;0.82;0.73;;;16.80;99.90;;;;;;5034123;28;20102;-69
2023/09/10 06:42:47;;;;;;;0.73;0.73;;;16.80;99.90;;;;;;5067849;28;20060;-69
2023/09/10 06:45:13;;;;;;;0.63;0.63;;;16.90;99.90;;;;;;5039757;28;20119;-69
2023/09/10 06:47:38;;;;;;;1.13;0.85;;;17.00;99.90;;;;;;5042471;28;20041;-69
2023/09/10 06:50:05;;;;;;;0.75;0.75;;;17.10;99.90;;;;;;5056632;28;20037;-69
2023/09/10 06:52:31;;;;;;;0.32;0.30;;;17.20;99.90;;;;;;5040839;28;20049;-70
2023/09/10 06:54:57;;;;;;;0.68;0.68;;;17.30;99.90;;;;;;5020498;28;20048;-70
2023/09/10 06:57:22;;;;;;;0.30;0.30;;;17.50;99.90;;;;;;5039949;28;20037;-70
2023/09/10 06:59:48;;;;;;;1.30;1.20;;;17.60;99.90;;;;;;5035859;28;20045;-70
2023/09/10 07:02:13;;;;;;;0.45;0.20;;;17.70;99.90;;;;;;5037747;28;20505;-70
2023/09/10 07:04:47;;;;;;;0.50;0.50;;;17.80;99.90;;;;;;5061785;28;20040;-69
2023/09/10 07:07:13;;;;;;;0.13;0.10;;;18.00;99.90;;;;;;5037884;28;20403;-69
2023/09/10 07:09:38;;;;;;;0.40;0.38;;;18.10;99.90;;;;;;5041923;28;20048;-69
2023/09/10 07:12:06;;;;;;;0.17;0.17;;;18.20;99.90;;;;;;5036296;28;20514;-70
2023/09/10 07:14:31;;;;;;;0.30;0.30;;;18.40;99.90;;;;;;5058711;28;20062;-69
2023/09/10 07:16:57;;;;;;;0.40;0.40;;;18.50;99.90;;;;;;5047156;28;20059;-69
2023/09/10 07:19:22;;;;;;;0.25;0.25;;;18.70;99.90;;;;;;5056194;28;20471;-69
2023/09/10 07:21:48;;;;;;;0.10;0.10;;;18.80;99.90;;;;;;5047579;28;20036;-69
2023/09/10 07:24:13;;;;;;;0.13;0.13;;;18.90;99.90;;;;;;5059189;28;20032;-69
2023/09/10 07:26:39;;;;;;;1.58;0.52;;;19.10;99.90;;;;;;5038083;28;20415;-69
2023/09/10 07:29:06;;;;;;;1.85;0.57;;;19.20;99.90;;;;;;5045529;28;20127;-69
2023/09/10 07:31:33;;;;;;;0.10;0.10;;;19.30;99.90;;;;;;5039435;28;20045;-69
2023/09/10 07:33:59;;;;;;;0.10;0.10;;;19.50;99.90;;;;;;5041811;28;20040;-69
2023/09/10 07:36:24;;;;;;;0.45;0.40;;;19.60;99.90;;;;;;5047847;28;20037;-69
2023/09/10 07:38:50;;;;;;;0.10;0.10;;;19.80;99.90;;;;;;5048949;28;20049;-69
2023/09/10 07:41:16;;;;;;;0.25;0.25;;;19.90;99.90;;;;;;5036557;28;20080;-69
2023/09/10 07:43:41;;;;;;;0.30;0.30;;;20.00;99.90;;;;;;5062069;28;20037;-69
2023/09/10 07:46:07;;;;;;;1.25;0.70;;;20.10;99.90;;;;;;5040667;28;20124;-69
2023/09/10 07:48:32;;;;;;;0.38;0.38;;;20.20;99.90;;;;;;5034506;28;20106;-69
2023/09/10 07:50:59;;;;;;;0.63;0.63;;;20.30;99.90;;;;;;5069385;28;20502;-70
2023/09/10 07:53:25;;;;;;;0.22;0.22;;;20.40;99.90;;;;;;5042868;28;20068;-70
2023/09/10 07:55:51;;;;;;;0.43;0.20;;;20.50;99.90;;;;;;5043332;28;20048;-69
2023/09/10 07:58:17;;;;;;;0.93;0.73;;;20.70;99.90;;;;;;5042269;28;20048;-70
2023/09/10 08:00:42;;;;;;;0.45;0.28;;;20.80;99.90;;;;;;5039296;28;20032;-70
2023/09/10 08:03:08;;;;;;;0.60;0.60;;;20.90;99.90;;;;;;5043815;28;20037;-70
2023/09/10 08:05:34;;;;;;;0.30;0.30;;;21.00;99.90;;;;;;5075166;28;20068;-70
2023/09/10 08:08:03;;;;;;;0.80;0.80;;;21.10;99.90;;;;;;5038344;28;20086;-70
2023/09/10 08:10:33;;;;;;;1.95;0.82;;;21.30;99.90;;;;;;5048635;28;20045;-70
2023/09/10 08:12:59;;;;;;;0.47;0.47;;;21.30;99.90;;;;;;5076230;28;20176;-70
2023/09/10 08:15:25;;;;;;;1.95;0.77;;;21.40;99.90;;;;;;5038375;28;20044;-70
2023/09/10 08:17:55;;;;;;;0.55;0.55;;;21.50;99.90;;;;;;5039355;28;20044;-70
2023/09/10 08:20:21;;;;;;;0.28;0.28;;;21.60;99.90;;;;;;5038739;28;20139;-70
2023/09/10 08:22:47;;;;;;;0.90;0.68;;;21.80;99.90;;;;;;5053784;28;20032;-70
2023/09/10 08:25:13;;;;;;;0.35;0.35;;;21.90;99.90;;;;;;5044455;28;20481;-70
2023/09/10 08:27:39;;;;;;;2.45;0.95;;;22.00;99.90;;;;;;5039191;28;20033;-69
2023/09/10 08:30:06;;;;;;;0.80;0.80;;;22.00;99.90;;;;;;5075009;28;20515;-70
2023/09/10 08:32:33;;;;;;;1.63;1.52;;;22.20;99.90;;;;;;5038571;28;20051;-70
2023/09/10 08:34:59;;;;;;;1.23;1.23;;;22.30;99.90;;;;;;5047812;28;20036;-70
2023/09/10 08:37:24;;;;;;;0.77;0.77;;;22.40;99.90;;;;;;5039608;28;20048;-70
2023/09/10 08:39:50;;;;;;;0.70;0.68;;;22.50;99.90;;;;;;5048639;28;20045;-69
2023/09/10 08:42:21;;;;;;;0.52;0.52;;;22.60;99.90;;;;;;5042462;28;20044;-69
2023/09/10 08:44:53;;;;;;;0.40;0.40;;;22.60;99.90;;;;;;5049851;28;20052;-70
2023/09/10 08:47:22;;;;;;;0.82;0.82;;;22.70;99.90;;;;;;5040962;28;20034;-70
2023/09/10 08:49:51;;;;;;;1.38;0.95;;;22.80;99.90;;;;;;5039088;28;20437;-70
2023/09/10 08:52:18;;;;;;;5.25;1.75;;;22.90;99.90;;;;;;5027384;28;20040;-70
2023/09/10 08:54:44;;;;;;;0.52;0.52;;;23.00;99.90;;;;;;5055624;28;20123;-70
2023/09/10 08:57:11;;;;;;;0.75;0.75;;;23.10;99.90;;;;;;5041487;28;20115;-69
2023/09/10 08:59:38;;;;;;;1.75;0.60;;;23.20;99.90;;;;;;5042573;28;20399;-70
2023/09/10 09:02:08;;;;;;;0.47;0.47;;;23.20;99.90;;;;;;5039756;28;20507;-70
2023/09/10 09:04:33;;;;;;;1.48;1.15;;;23.30;99.90;;;;;;5037432;28;20056;-70
2023/09/10 09:07:02;;;;;;;1.75;0.93;;;23.40;99.90;;;;;;5069938;28;20044;-70
2023/09/10 09:09:34;;;;;;;1.85;1.73;;;23.50;99.90;;;;;;5040319;28;20479;-70
2023/09/10 09:12:02;;;;;;;1.25;1.15;;;23.50;99.90;;;;;;5036101;28;20418;-70
2023/09/10 09:14:29;;;;;;;1.45;1.35;;;23.60;99.90;;;;;;5040111;28;20094;-70
2023/09/10 09:16:54;;;;;;;1.45;0.80;;;23.70;99.90;;;;;;5031786;28;20060;-70
2023/09/10 09:19:22;;;;;;;0.90;0.60;;;23.70;99.90;;;;;;5041583;28;20318;-70
2023/09/10 09:21:50;;;;;;;1.92;1.55;;;23.80;99.90;;;;;;5043920;28;20047;-70
2023/09/10 09:24:17;;;;;;;2.50;0.43;;;23.90;99.90;;;;;;5032125;28;20049;-70
2023/09/10 09:26:43;;;;;;;1.02;0.75;;;23.90;99.90;;;;;;5037061;28;20395;-70
2023/09/10 09:29:09;;;;;;;2.22;0.70;;;24.00;99.90;;;;;;5045572;28;20052;-70
2023/09/10 09:31:35;;;;;;;0.60;0.50;;;24.00;99.90;;;;;;5039180;28;20048;-70
2023/09/10 09:34:01;;;;;;;2.28;0.80;;;24.10;99.90;;;;;;5045157;28;20047;-70
2023/09/10 09:36:28;;;;;;;1.88;1.45;;;24.10;99.90;;;;;;5059668;28;20045;-70
2023/09/10 09:38:54;;;;;;;0.52;0.50;;;24.20;99.90;;;;;;5033524;28;20514;-70
2023/09/10 09:41:20;;;;;;;0.45;0.45;;;24.30;99.90;;;;;;5066504;28;20080;-70
2023/09/10 09:43:46;;;;;;;1.75;0.68;;;24.40;99.90;;;;;;5037492;28;20440;-70
2023/09/10 09:46:11;;;;;;;1.13;0.57;;;24.40;99.90;;;;;;5057349;28;20063;-70
2023/09/10 09:48:38;;;;;;;0.95;0.95;;;24.50;99.90;;;;;;5032527;28;20127;-70
2023/09/10 09:51:05;;;;;;;0.38;0.38;;;24.60;99.90;;;;;;5038266;28;20086;-70
2023/09/10 09:53:32;;;;;;;0.60;0.60;;;24.60;99.90;;;;;;5042629;28;20037;-69
2023/09/10 09:56:05;;;;;;;1.58;1.48;;;24.70;99.90;;;;;;5040059;28;20421;-70
2023/09/10 09:58:31;;;;;;;0.60;0.60;;;24.80;99.90;;;;;;5040749;28;20216;-70
2023/09/10 10:00:58;;;;;;;0.70;0.70;;;24.90;99.90;;;;;;5035903;28;20135;-70
2023/09/10 10:03:23;;;;;;;1.38;0.80;;;24.90;99.90;;;;;;5038915;28;20440;-70
2023/09/10 10:05:51;;;;;;;1.13;0.57;;;25.10;99.90;;;;;;5040848;28;20159;-70
2023/09/10 10:08:17;;;;;;;1.48;1.20;;;25.10;99.90;;;;;;5032675;28;20048;-69
2023/09/10 10:10:47;;;;;;;0.85;0.77;;;25.20;99.90;;;;;;5065763;28;20037;-69
2023/09/10 10:13:24;;;;;;;1.25;1.10;;;25.20;99.90;;;;;;5029170;28;20045;-70
2023/09/10 10:15:52;;;;;;;3.35;1.75;;;25.30;99.90;;;;;;5037996;28;20558;-69
2023/09/10 10:18:20;;;;;;;2.15;1.30;;;25.30;99.90;;;;;;5034356;28;20091;-70
2023/09/10 10:20:47;;;;;;;1.33;1.30;;;25.40;99.90;;;;;;5042053;28;20059;-70
2023/09/10 10:23:22;;;;;;;1.10;0.95;;;25.50;99.90;;;;;;5036850;28;20577;-70
2023/09/10 10:25:48;;;;;;;7.22;1.42;;;25.50;99.90;;;;;;5035717;28;20625;-70
2023/09/10 10:28:14;;;;;;;0.75;0.75;;;25.50;99.90;;;;;;5034912;28;20044;-69
2023/09/10 10:30:51;;;;;;;1.40;0.88;;;25.60;99.90;;;;;;5040736;28;20044;-70
2023/09/10 10:33:19;;;;;;;2.15;1.00;;;25.60;99.90;;;;;;5039640;28;20115;-70
2023/09/10 10:35:58;;;;;;;1.17;1.08;;;25.70;99.90;;;;;;5037374;28;20189;-70
2023/09/10 10:38:30;;;;;;;1.00;0.88;;;25.80;99.90;;;;;;5052269;28;20387;-70
2023/09/10 10:40:57;;;;;;;2.75;0.68;;;25.90;99.90;;;;;;5035317;28;20101;-69
2023/09/10 10:43:30;;;;;;;0.65;0.65;;;25.90;99.90;;;;;;5036618;28;20053;-70
2023/09/10 10:45:57;;;;;;;0.30;0.30;;;25.90;99.90;;;;;;5066566;28;20040;-69
2023/09/10 10:48:26;;;;;;;1.85;1.05;;;26.00;99.90;;;;;;5035954;28;20394;-69
2023/09/10 10:50:56;;;;;;;1.23;0.77;;;26.00;99.90;;;;;;5036444;28;20379;-69
2023/09/10 10:53:23;;;;;;;0.57;0.57;;;26.00;99.90;;;;;;5039194;28;20053;-69
2023/09/10 10:55:52;;;;;;;0.82;0.82;;;26.00;99.90;;;;;;5038316;28;20049;-69
2023/09/10 10:58:20;;;;;;;1.70;0.75;;;26.10;99.90;;;;;;5035968;28;20090;-70
2023/09/10 11:00:53;;;;;;;0.50;0.50;;;26.10;99.90;;;;;;5034981;28;20037;-70
2023/09/10 11:03:20;;;;;;;2.20;1.98;;;26.20;99.90;;;;;;5038079;28;20470;-69
2023/09/10 11:05:52;;;;;;;0.25;0.25;;;26.20;99.90;;;;;;5072735;28;20118;-69
2023/09/10 11:08:38;;;;;;;0.30;0.30;;;26.20;99.90;;;;;;5034618;28;20407;-70
2023/09/10 11:11:24;;;;;;;0.25;0.25;;;26.30;99.90;;;;;;5029825;28;20602;-70
2023/09/10 11:14:01;;;;;;;1.33;0.70;;;26.30;99.90;;;;;;5028609;28;20049;-70
2023/09/10 11:16:29;;;;;;;1.20;0.73;;;26.30;99.90;;;;;;5045981;28;20636;-70
2023/09/10 11:18:54;;;;;;;0.50;0.50;;;26.30;99.90;;;;;;5048720;28;20406;-69
2023/09/10 11:21:20;;;;;;;0.75;0.75;;;26.40;99.90;;;;;;5046465;28;20045;-69
2023/09/10 11:23:52;;;;;;;3.40;0.93;;;26.40;99.90;;;;;;5037250;28;20033;-69
2023/09/10 11:26:17;;;;;;;;;;;26.40;99.90;;;;;;5048887;28;20190;-70
2023/09/10 11:28:52;;;;;;;0.93;0.85;;;26.50;99.90;;;;;;5041814;28;20014;-69
2023/09/10 11:31:33;;;;;;;2.45;0.57;;;26.50;99.90;;;;;;5048092;28;20044;-69
2023/09/10 11:34:27;;;;;;;1.60;1.50;;;26.50;99.90;;;;;;5037720;28;20311;-69
2023/09/10 11:36:55;;;;;;;0.93;0.93;;;26.50;99.90;;;;;;5024591;28;20063;-70
2023/09/10 11:39:22;;;;;;;0.28;0.28;;;26.60;99.90;;;;;;5070776;28;20056;-69
2023/09/10 11:41:50;;;;;;;0.40;0.40;;;26.60;99.90;;;;;;5042256;28;20637;-69
2023/09/10 11:44:16;;;;;;;0.50;0.50;;;26.60;99.90;;;;;;5055443;28;20054;-69
2023/09/10 11:46:42;;;;;;;0.52;0.52;;;26.70;99.90;;;;;;5041013;28;20068;-69
2023/09/10 11:49:08;;;;;;;0.28;0.28;;;26.70;99.90;;;;;;5043718;28;20040;-70
2023/09/10 11:51:48;;;;;;;0.98;0.52;;;26.70;99.90;;;;;;5040890;28;20047;-69
2023/09/10 11:54:16;;;;;;;0.47;0.47;;;26.70;99.90;;;;;;5040183;28;20084;-69
2023/09/10 11:56:46;;;;;;;3.70;1.35;;;26.80;99.90;;;;;;5041199;28;20127;-69
2023/09/10 11:59:15;;;;;;;0.98;0.38;;;26.80;99.90;;;;;;5055512;28;20119;-70
2023/09/10 12:01:41;;;;;;;0.35;0.35;;;26.90;99.90;;;;;;5036031;28;20047;-69
2023/09/10 12:04:07;;;;;;;0.70;0.50;;;27.00;99.90;;;;;;5043731;28;20047;-70
2023/09/10 12:06:33;;;;;;;0.98;0.70;;;27.00;99.90;;;;;;5040769;28;20471;-69
2023/09/10 12:08:58;;;;;;;1.10;0.73;;;27.00;99.90;;;;;;5046814;28;20041;-70
2023/09/10 12:11:26;;;;;;;0.82;0.47;;;27.10;99.90;;;;;;5046650;28;20048;-70
2023/09/10 12:13:52;;;;;;;0.57;0.55;;;27.10;99.90;;;;;;5045108;28;20037;-70
2023/09/10 12:16:18;;;;;;;0.60;0.40;;;27.10;99.90;;;;;;5041366;28;20052;-70
2023/09/10 12:18:44;;;;;;;0.47;0.47;;;27.10;99.90;;;;;;5069815;28;20040;-70
2023/09/10 12:21:14;;;;;;;0.40;0.30;;;27.10;99.90;;;;;;5030788;28;20471;-70
2023/09/10 12:23:40;;;;;;;1.08;0.75;;;27.10;99.90;;;;;;5062254;28;20455;-70
2023/09/10 12:26:07;;;;;;;1.33;0.63;;;27.10;99.90;;;;;;5044024;28;20045;-71
2023/09/10 12:28:33;;;;;;;0.52;0.52;;;27.10;99.90;;;;;;5044575;28;20052;-69
2023/09/10 12:30:59;;;;;;;1.95;1.13;;;27.10;99.90;;;;;;5048990;28;20113;-70
2023/09/10 12:33:25;;;;;;;5.35;1.20;;;27.00;99.90;;;;;;5044650;28;20475;-70
2023/09/10 12:35:51;;;;;;;0.70;0.70;;;27.00;99.90;;;;;;5062490;28;20041;-70
2023/09/10 12:38:18;;;;;;;0.73;0.70;;;27.10;99.90;;;;;;5041500;28;20648;-70
2023/09/10 12:40:47;;;;;;;0.75;0.47;;;27.10;99.90;;;;;;5055707;28;20059;-70
2023/09/10 12:43:18;;;;;;;1.55;0.82;;;27.20;99.90;;;;;;5035847;28;20399;-70
2023/09/10 12:45:44;;;;;;;0.77;0.68;;;27.20;99.90;;;;;;5061365;28;20033;-70
2023/09/10 12:48:10;;;;;;;0.63;0.63;;;27.20;99.90;;;;;;5037112;28;20517;-70